sensor_id;sensor_type;location;lat;lon;timestamp;temperature;humidity
25991;DHT22;13779;-33.886;151.198;2023-04-24T00:01:07;21.20;99.90
25991;DHT22;13779;-33.886;151.198;2023-04-24T00:03:38;21.20;99.90
25991;DHT22;13779;-33.886;151.198;2023-04-24T00:06:08;21.20;99.90
25991;DHT22;13779;-33.886;151.198;2023-04-24T00:08:38;21.20;99.90
25991;DHT22;13779;-33.886;151.198;2023-04-24T00:11:09;21.20;99.90
25991;DHT22;13779;-33.886;151.198;2023-04-24T00:13:39;21.20;99.90
25991;DHT22;13779;-33.886;151.198;2023-04-24T00:16:09;21.20;99.90
25991;DHT22;13779;-33.886;151.198;2023-04-24T00:18:39;21.20;99.90
25991;DHT22;13779;-33.886;151.198;2023-04-24T00:21:10;21.30;99.90
25991;DHT22;13779;-33.886;151.198;2023-04-24T00:23:40;21.30;99.90
25991;DHT22;13779;-33.886;151.198;2023-04-24T00:26:11;21.30;99.90
25991;DHT22;13779;-33.886;151.198;2023-04-24T00:28:41;21.40;99.90
25991;DHT22;13779;-33.886;151.198;2023-04-24T00:31:11;21.40;99.90
25991;DHT22;13779;-33.886;151.198;2023-04-24T00:33:42;21.50;99.90
25991;DHT22;13779;-33.886;151.198;2023-04-24T00:36:12;21.50;99.90
25991;DHT22;13779;-33.886;151.198;2023-04-24T00:38:42;21.50;99.90
25991;DHT22;13779;-33.886;151.198;2023-04-24T00:41:13;21.60;99.90
25991;DHT22;13779;-33.886;151.198;2023-04-24T00:43:43;21.60;99.90
25991;DHT22;13779;-33.886;151.198;2023-04-24T00:46:14;21.70;99.90
25991;DHT22;13779;-33.886;151.198;2023-04-24T00:48:46;21.70;99.90
25991;DHT22;13779;-33.886;151.198;2023-04-24T00:51:17;21.80;99.90
25991;DHT22;13779;-33.886;151.198;2023-04-24T00:53:47;21.90;99.90
25991;DHT22;13779;-33.886;151.198;2023-04-24T00:56:18;21.90;99.90
25991;DHT22;13779;-33.886;151.198;2023-04-24T00:58:49;21.80;99.90
25991;DHT22;13779;-33.886;151.198;2023-04-24T01:01:23;21.70;99.90
25991;DHT22;13779;-33.886;151.198;2023-04-24T01:03:53;21.70;99.90
25991;DHT22;13779;-33.886;151.198;2023-04-24T01:06:28;21.70;99.90
25991;DHT22;13779;-33.886;151.198;2023-04-24T01:09:00;21.60;99.90
25991;DHT22;13779;-33.886;151.198;2023-04-24T01:11:31;21.50;99.90
25991;DHT22;13779;-33.886;151.198;2023-04-24T01:14:02;21.50;99.90
25991;DHT22;13779;-33.886;151.198;2023-04-24T01:16:33;21.50;99.90
25991;DHT22;13779;-33.886;151.198;2023-04-24T01:19:04;21.40;99.90
25991;DHT22;13779;-33.886;151.198;2023-04-24T01:21:38;21.50;99.90
25991;DHT22;13779;-33.886;151.198;2023-04-24T01:24:09;21.60;99.90
25991;DHT22;13779;-33.886;151.198;2023-04-24T01:26:40;21.60;99.90
25991;DHT22;13779;-33.886;151.198;2023-04-24T01:29:10;21.60;99.90
25991;DHT22;13779;-33.886;151.198;2023-04-24T01:31:41;21.70;99.90
25991;DHT22;13779;-33.886;151.198;2023-04-24T01:34:12;21.70;99.90
25991;DHT22;13779;-33.886;151.198;2023-04-24T01:36:43;21.80;99.90
25991;DHT22;13779;-33.886;151.198;2023-04-24T01:39:15;21.80;99.90
25991;DHT22;13779;-33.886;151.198;2023-04-24T01:41:46;21.80;99.90
25991;DHT22;13779;-33.886;151.198;2023-04-24T01:44:16;21.70;99.90
25991;DHT22;13779;-33.886;151.198;2023-04-24T01:46:47;21.80;99.90
25991;DHT22;13779;-33.886;151.198;2023-04-24T01:49:17;21.70;99.90
25991;DHT22;13779;-33.886;151.198;2023-04-24T01:51:47;21.60;99.90
25991;DHT22;13779;-33.886;151.198;2023-04-24T01:54:18;21.50;99.90
25991;DHT22;13779;-33.886;151.198;2023-04-24T01:56:49;21.40;99.90
25991;DHT22;13779;-33.886;151.198;2023-04-24T01:59:21;21.40;99.90
25991;DHT22;13779;-33.886;151.198;2023-04-24T02:01:53;21.40;99.90
25991;DHT22;13779;-33.886;151.198;2023-04-24T02:04:23;21.40;99.90
25991;DHT22;13779;-33.886;151.198;2023-04-24T02:06:53;21.30;99.90
25991;DHT22;13779;-33.886;151.198;2023-04-24T02:09:23;21.40;99.90
25991;DHT22;13779;-33.886;151.198;2023-04-24T02:11:54;21.30;99.90
25991;DHT22;13779;-33.886;151.198;2023-04-24T02:14:25;21.30;99.90
25991;DHT22;13779;-33.886;151.198;2023-04-24T02:16:56;21.20;99.90
25991;DHT22;13779;-33.886;151.198;2023-04-24T02:19:27;21.20;99.90
25991;DHT22;13779;-33.886;151.198;2023-04-24T02:21:57;21.10;99.90
25991;DHT22;13779;-33.886;151.198;2023-04-24T02:24:27;21.10;99.90
25991;DHT22;13779;-33.886;151.198;2023-04-24T02:26:57;21.00;99.90
25991;DHT22;13779;-33.886;151.198;2023-04-24T02:29:27;21.00;99.90
25991;DHT22;13779;-33.886;151.198;2023-04-24T02:31:57;21.00;99.90
25991;DHT22;13779;-33.886;151.198;2023-04-24T02:34:27;21.00;99.90
25991;DHT22;13779;-33.886;151.198;2023-04-24T02:36:57;21.00;99.90
25991;DHT22;13779;-33.886;151.198;2023-04-24T02:39:27;21.00;99.90
25991;DHT22;13779;-33.886;151.198;2023-04-24T02:41:58;21.00;99.90
25991;DHT22;13779;-33.886;151.198;2023-04-24T02:44:28;20.90;99.90
25991;DHT22;13779;-33.886;151.198;2023-04-24T02:46:58;21.00;99.90
25991;DHT22;13779;-33.886;151.198;2023-04-24T02:49:28;21.00;99.90
25991;DHT22;13779;-33.886;151.198;2023-04-24T02:51:58;21.00;99.90
25991;DHT22;13779;-33.886;151.198;2023-04-24T02:54:28;21.00;99.90
25991;DHT22;13779;-33.886;151.198;2023-04-24T02:56:58;21.10;99.90
25991;DHT22;13779;-33.886;151.198;2023-04-24T02:59:29;21.10;99.90
25991;DHT22;13779;-33.886;151.198;2023-04-24T03:01:59;21.20;99.90
25991;DHT22;13779;-33.886;151.198;2023-04-24T03:04:30;21.10;99.90
25991;DHT22;13779;-33.886;151.198;2023-04-24T03:07:00;21.20;99.90
25991;DHT22;13779;-33.886;151.198;2023-04-24T03:09:30;21.10;99.90
25991;DHT22;13779;-33.886;151.198;2023-04-24T03:12:00;21.20;99.90
25991;DHT22;13779;-33.886;151.198;2023-04-24T03:14:30;21.30;99.90
25991;DHT22;13779;-33.886;151.198;2023-04-24T03:17:00;21.40;99.90
25991;DHT22;13779;-33.886;151.198;2023-04-24T03:19:31;21.50;99.90
25991;DHT22;13779;-33.886;151.198;2023-04-24T03:22:02;21.50;99.90
25991;DHT22;13779;-33.886;151.198;2023-04-24T03:24:32;21.50;99.90
25991;DHT22;13779;-33.886;151.198;2023-04-24T03:27:03;21.50;99.90
25991;DHT22;13779;-33.886;151.198;2023-04-24T03:29:33;21.40;99.90
25991;DHT22;13779;-33.886;151.198;2023-04-24T03:32:03;21.30;99.90
25991;DHT22;13779;-33.886;151.198;2023-04-24T03:34:33;21.20;99.90
25991;DHT22;13779;-33.886;151.198;2023-04-24T03:37:04;21.20;99.90
25991;DHT22;13779;-33.886;151.198;2023-04-24T03:39:34;21.10;99.90
25991;DHT22;13779;-33.886;151.198;2023-04-24T03:42:05;21.10;99.90
25991;DHT22;13779;-33.886;151.198;2023-04-24T03:44:36;21.10;99.90
25991;DHT22;13779;-33.886;151.198;2023-04-24T03:47:06;21.10;99.90
25991;DHT22;13779;-33.886;151.198;2023-04-24T03:49:37;21.20;99.90
25991;DHT22;13779;-33.886;151.198;2023-04-24T03:52:07;21.20;99.90
25991;DHT22;13779;-33.886;151.198;2023-04-24T03:54:37;21.20;99.90
25991;DHT22;13779;-33.886;151.198;2023-04-24T03:57:07;21.20;99.90
25991;DHT22;13779;-33.886;151.198;2023-04-24T03:59:37;21.20;99.90
25991;DHT22;13779;-33.886;151.198;2023-04-24T04:02:07;21.20;99.90
25991;DHT22;13779;-33.886;151.198;2023-04-24T04:04:37;21.20;99.90
25991;DHT22;13779;-33.886;151.198;2023-04-24T04:07:08;21.20;99.90
25991;DHT22;13779;-33.886;151.198;2023-04-24T04:09:38;21.20;99.90
25991;DHT22;13779;-33.886;151.198;2023-04-24T04:12:08;21.20;99.90
25991;DHT22;13779;-33.886;151.198;2023-04-24T04:14:38;21.20;99.90
25991;DHT22;13779;-33.886;151.198;2023-04-24T04:17:08;21.20;99.90
25991;DHT22;13779;-33.886;151.198;2023-04-24T04:19:39;21.30;99.90
25991;DHT22;13779;-33.886;151.198;2023-04-24T04:22:10;21.40;99.90
25991;DHT22;13779;-33.886;151.198;2023-04-24T04:24:40;21.50;99.90
25991;DHT22;13779;-33.886;151.198;2023-04-24T04:27:10;21.60;99.90
25991;DHT22;13779;-33.886;151.198;2023-04-24T04:29:41;21.60;99.90
25991;DHT22;13779;-33.886;151.198;2023-04-24T04:32:12;21.50;99.90
25991;DHT22;13779;-33.886;151.198;2023-04-24T04:34:43;21.50;99.90
25991;DHT22;13779;-33.886;151.198;2023-04-24T04:37:14;21.50;99.90
25991;DHT22;13779;-33.886;151.198;2023-04-24T04:39:45;21.40;99.90
25991;DHT22;13779;-33.886;151.198;2023-04-24T04:42:15;21.40;99.90
25991;DHT22;13779;-33.886;151.198;2023-04-24T04:44:49;21.50;99.90
25991;DHT22;13779;-33.886;151.198;2023-04-24T04:47:21;21.50;99.90
25991;DHT22;13779;-33.886;151.198;2023-04-24T04:49:56;21.50;99.90
25991;DHT22;13779;-33.886;151.198;2023-04-24T04:52:26;21.60;99.90
25991;DHT22;13779;-33.886;151.198;2023-04-24T04:54:57;21.50;99.90
25991;DHT22;13779;-33.886;151.198;2023-04-24T04:57:27;21.40;99.90
25991;DHT22;13779;-33.886;151.198;2023-04-24T04:59:58;21.40;99.90
25991;DHT22;13779;-33.886;151.198;2023-04-24T05:02:28;21.30;99.90
25991;DHT22;13779;-33.886;151.198;2023-04-24T05:04:59;21.30;99.90
25991;DHT22;13779;-33.886;151.198;2023-04-24T05:07:34;21.20;99.90
25991;DHT22;13779;-33.886;151.198;2023-04-24T05:10:05;21.20;99.90
25991;DHT22;13779;-33.886;151.198;2023-04-24T05:12:36;21.20;99.90
25991;DHT22;13779;-33.886;151.198;2023-04-24T05:15:07;21.20;99.90
25991;DHT22;13779;-33.886;151.198;2023-04-24T05:17:37;21.20;99.90
25991;DHT22;13779;-33.886;151.198;2023-04-24T05:20:09;21.20;99.90
25991;DHT22;13779;-33.886;151.198;2023-04-24T05:22:40;21.20;99.90
25991;DHT22;13779;-33.886;151.198;2023-04-24T05:25:11;21.20;99.90
25991;DHT22;13779;-33.886;151.198;2023-04-24T05:27:42;21.20;99.90
25991;DHT22;13779;-33.886;151.198;2023-04-24T05:30:13;21.20;99.90
25991;DHT22;13779;-33.886;151.198;2023-04-24T05:32:43;21.20;99.90
25991;DHT22;13779;-33.886;151.198;2023-04-24T05:35:14;21.20;99.90
25991;DHT22;13779;-33.886;151.198;2023-04-24T05:37:45;21.20;99.90
25991;DHT22;13779;-33.886;151.198;2023-04-24T05:40:15;21.10;99.90
25991;DHT22;13779;-33.886;151.198;2023-04-24T05:42:46;21.10;99.90
25991;DHT22;13779;-33.886;151.198;2023-04-24T05:45:18;21.10;99.90
25991;DHT22;13779;-33.886;151.198;2023-04-24T05:47:49;21.10;99.90
25991;DHT22;13779;-33.886;151.198;2023-04-24T05:50:22;21.00;99.90
25991;DHT22;13779;-33.886;151.198;2023-04-24T05:52:53;21.00;99.90
25991;DHT22;13779;-33.886;151.198;2023-04-24T05:55:24;21.00;99.90
25991;DHT22;13779;-33.886;151.198;2023-04-24T05:57:55;21.00;99.90
25991;DHT22;13779;-33.886;151.198;2023-04-24T06:00:26;21.00;99.90
25991;DHT22;13779;-33.886;151.198;2023-04-24T06:02:59;20.90;99.90
25991;DHT22;13779;-33.886;151.198;2023-04-24T06:05:30;20.90;99.90
25991;DHT22;13779;-33.886;151.198;2023-04-24T06:08:00;20.90;99.90
25991;DHT22;13779;-33.886;151.198;2023-04-24T06:10:31;20.90;99.90
25991;DHT22;13779;-33.886;151.198;2023-04-24T06:13:02;20.80;99.90
25991;DHT22;13779;-33.886;151.198;2023-04-24T06:15:32;20.70;99.90
25991;DHT22;13779;-33.886;151.198;2023-04-24T06:18:03;20.60;99.90
25991;DHT22;13779;-33.886;151.198;2023-04-24T06:20:34;20.60;99.90
25991;DHT22;13779;-33.886;151.198;2023-04-24T06:23:05;20.60;99.90
25991;DHT22;13779;-33.886;151.198;2023-04-24T06:25:35;20.50;99.90
25991;DHT22;13779;-33.886;151.198;2023-04-24T06:28:06;20.50;99.90
25991;DHT22;13779;-33.886;151.198;2023-04-24T06:30:36;20.50;99.90
25991;DHT22;13779;-33.886;151.198;2023-04-24T06:33:07;20.40;99.90
25991;DHT22;13779;-33.886;151.198;2023-04-24T06:35:47;20.40;99.90
25991;DHT22;13779;-33.886;151.198;2023-04-24T06:38:18;20.40;99.90
25991;DHT22;13779;-33.886;151.198;2023-04-24T06:40:49;20.40;99.90
25991;DHT22;13779;-33.886;151.198;2023-04-24T06:43:20;20.30;99.90
25991;DHT22;13779;-33.886;151.198;2023-04-24T06:45:51;20.30;99.90
25991;DHT22;13779;-33.886;151.198;2023-04-24T06:48:21;20.30;99.90
25991;DHT22;13779;-33.886;151.198;2023-04-24T06:50:52;20.30;99.90
25991;DHT22;13779;-33.886;151.198;2023-04-24T06:53:22;20.30;99.90
25991;DHT22;13779;-33.886;151.198;2023-04-24T06:55:53;20.20;99.90
25991;DHT22;13779;-33.886;151.198;2023-04-24T06:58:25;20.20;99.90
25991;DHT22;13779;-33.886;151.198;2023-04-24T07:00:56;20.20;99.90
25991;DHT22;13779;-33.886;151.198;2023-04-24T07:03:26;20.10;99.90
25991;DHT22;13779;-33.886;151.198;2023-04-24T07:05:57;20.00;99.90
25991;DHT22;13779;-33.886;151.198;2023-04-24T07:08:28;20.00;99.90
25991;DHT22;13779;-33.886;151.198;2023-04-24T07:11:01;19.90;99.90
25991;DHT22;13779;-33.886;151.198;2023-04-24T07:13:34;19.80;99.90
25991;DHT22;13779;-33.886;151.198;2023-04-24T07:16:07;19.80;99.90
25991;DHT22;13779;-33.886;151.198;2023-04-24T07:18:39;19.90;99.90
25991;DHT22;13779;-33.886;151.198;2023-04-24T07:21:10;19.80;99.90
25991;DHT22;13779;-33.886;151.198;2023-04-24T07:23:41;19.90;99.90
25991;DHT22;13779;-33.886;151.198;2023-04-24T07:26:12;19.80;99.90
25991;DHT22;13779;-33.886;151.198;2023-04-24T07:28:44;19.80;99.90
25991;DHT22;13779;-33.886;151.198;2023-04-24T07:31:15;19.80;99.90
25991;DHT22;13779;-33.886;151.198;2023-04-24T07:33:45;19.80;99.90
25991;DHT22;13779;-33.886;151.198;2023-04-24T07:36:16;19.80;99.90
25991;DHT22;13779;-33.886;151.198;2023-04-24T07:38:48;19.80;99.90
25991;DHT22;13779;-33.886;151.198;2023-04-24T07:41:19;19.70;99.90
25991;DHT22;13779;-33.886;151.198;2023-04-24T07:43:53;19.70;99.90
25991;DHT22;13779;-33.886;151.198;2023-04-24T07:46:23;19.70;99.90
25991;DHT22;13779;-33.886;151.198;2023-04-24T07:48:54;19.70;99.90
25991;DHT22;13779;-33.886;151.198;2023-04-24T07:51:39;19.70;99.90
25991;DHT22;13779;-33.886;151.198;2023-04-24T07:54:09;19.70;99.90
25991;DHT22;13779;-33.886;151.198;2023-04-24T07:56:41;19.70;99.90
25991;DHT22;13779;-33.886;151.198;2023-04-24T07:59:12;19.70;99.90
25991;DHT22;13779;-33.886;151.198;2023-04-24T08:01:45;19.70;99.90
25991;DHT22;13779;-33.886;151.198;2023-04-24T08:04:15;19.70;99.90
25991;DHT22;13779;-33.886;151.198;2023-04-24T08:06:50;19.70;99.90
25991;DHT22;13779;-33.886;151.198;2023-04-24T08:09:20;19.70;99.90
25991;DHT22;13779;-33.886;151.198;2023-04-24T08:11:52;19.70;99.90
25991;DHT22;13779;-33.886;151.198;2023-04-24T08:14:22;19.70;99.90
25991;DHT22;13779;-33.886;151.198;2023-04-24T08:16:54;19.60;99.90
25991;DHT22;13779;-33.886;151.198;2023-04-24T08:19:25;19.60;99.90
25991;DHT22;13779;-33.886;151.198;2023-04-24T08:21:55;19.60;99.90
25991;DHT22;13779;-33.886;151.198;2023-04-24T08:24:28;19.60;99.90
25991;DHT22;13779;-33.886;151.198;2023-04-24T08:26:59;19.60;99.90
25991;DHT22;13779;-33.886;151.198;2023-04-24T08:29:30;19.60;99.90
25991;DHT22;13779;-33.886;151.198;2023-04-24T08:32:00;19.50;99.90
25991;DHT22;13779;-33.886;151.198;2023-04-24T08:34:30;19.50;99.90
25991;DHT22;13779;-33.886;151.198;2023-04-24T08:37:01;19.60;99.90
25991;DHT22;13779;-33.886;151.198;2023-04-24T08:39:31;19.50;99.90
25991;DHT22;13779;-33.886;151.198;2023-04-24T08:42:02;19.40;99.90
25991;DHT22;13779;-33.886;151.198;2023-04-24T08:44:37;19.40;99.90
25991;DHT22;13779;-33.886;151.198;2023-04-24T08:47:08;19.40;99.90
25991;DHT22;13779;-33.886;151.198;2023-04-24T08:49:39;19.30;99.90
25991;DHT22;13779;-33.886;151.198;2023-04-24T08:52:10;19.30;99.90
25991;DHT22;13779;-33.886;151.198;2023-04-24T08:54:49;19.30;99.90
25991;DHT22;13779;-33.886;151.198;2023-04-24T08:57:20;19.20;99.90
25991;DHT22;13779;-33.886;151.198;2023-04-24T08:59:51;19.20;99.90
25991;DHT22;13779;-33.886;151.198;2023-04-24T09:02:22;19.30;99.90
25991;DHT22;13779;-33.886;151.198;2023-04-24T09:04:53;19.30;99.90
25991;DHT22;13779;-33.886;151.198;2023-04-24T09:07:28;19.30;99.90
25991;DHT22;13779;-33.886;151.198;2023-04-24T09:10:03;19.20;99.90
25991;DHT22;13779;-33.886;151.198;2023-04-24T09:12:34;19.20;99.90
25991;DHT22;13779;-33.886;151.198;2023-04-24T09:15:05;19.20;99.90
25991;DHT22;13779;-33.886;151.198;2023-04-24T09:17:37;19.30;99.90
25991;DHT22;13779;-33.886;151.198;2023-04-24T09:20:08;19.30;99.90
25991;DHT22;13779;-33.886;151.198;2023-04-24T09:22:38;19.30;99.90
25991;DHT22;13779;-33.886;151.198;2023-04-24T09:25:10;19.30;99.90
25991;DHT22;13779;-33.886;151.198;2023-04-24T09:27:43;19.30;99.90
25991;DHT22;13779;-33.886;151.198;2023-04-24T09:30:14;19.30;99.90
25991;DHT22;13779;-33.886;151.198;2023-04-24T09:33:10;19.30;99.90
25991;DHT22;13779;-33.886;151.198;2023-04-24T09:35:51;19.30;99.90
25991;DHT22;13779;-33.886;151.198;2023-04-24T09:41:13;19.40;99.90
25991;DHT22;13779;-33.886;151.198;2023-04-24T09:43:44;19.30;99.90
25991;DHT22;13779;-33.886;151.198;2023-04-24T09:46:14;19.30;99.90
25991;DHT22;13779;-33.886;151.198;2023-04-24T09:48:48;19.30;99.90
25991;DHT22;13779;-33.886;151.198;2023-04-24T09:51:34;19.30;99.90
25991;DHT22;13779;-33.886;151.198;2023-04-24T09:54:14;19.30;99.90
25991;DHT22;13779;-33.886;151.198;2023-04-24T09:56:49;19.20;99.90
25991;DHT22;13779;-33.886;151.198;2023-04-24T09:59:20;19.30;99.90
25991;DHT22;13779;-33.886;151.198;2023-04-24T10:01:51;19.30;99.90
25991;DHT22;13779;-33.886;151.198;2023-04-24T10:04:23;19.30;99.90
25991;DHT22;13779;-33.886;151.198;2023-04-24T10:06:55;19.30;99.90
25991;DHT22;13779;-33.886;151.198;2023-04-24T10:09:26;19.30;99.90
25991;DHT22;13779;-33.886;151.198;2023-04-24T10:12:01;19.40;99.90
25991;DHT22;13779;-33.886;151.198;2023-04-24T10:14:31;19.30;99.90
25991;DHT22;13779;-33.886;151.198;2023-04-24T10:17:01;19.40;99.90
25991;DHT22;13779;-33.886;151.198;2023-04-24T10:19:32;19.30;99.90
25991;DHT22;13779;-33.886;151.198;2023-04-24T10:22:03;19.30;99.90
25991;DHT22;13779;-33.886;151.198;2023-04-24T10:24:35;19.20;99.90
25991;DHT22;13779;-33.886;151.198;2023-04-24T10:27:09;19.20;99.90
25991;DHT22;13779;-33.886;151.198;2023-04-24T10:29:39;19.20;99.90
25991;DHT22;13779;-33.886;151.198;2023-04-24T10:32:13;19.20;99.90
25991;DHT22;13779;-33.886;151.198;2023-04-24T10:34:43;19.20;99.90
25991;DHT22;13779;-33.886;151.198;2023-04-24T10:37:14;19.20;99.90
25991;DHT22;13779;-33.886;151.198;2023-04-24T10:39:48;19.30;99.90
25991;DHT22;13779;-33.886;151.198;2023-04-24T10:42:24;19.10;99.90
25991;DHT22;13779;-33.886;151.198;2023-04-24T10:44:57;19.10;99.90
25991;DHT22;13779;-33.886;151.198;2023-04-24T10:47:27;19.10;99.90
25991;DHT22;13779;-33.886;151.198;2023-04-24T10:49:59;19.10;99.90
25991;DHT22;13779;-33.886;151.198;2023-04-24T10:52:51;19.10;99.90
25991;DHT22;13779;-33.886;151.198;2023-04-24T10:55:42;19.10;99.90
25991;DHT22;13779;-33.886;151.198;2023-04-24T10:58:12;19.10;99.90
25991;DHT22;13779;-33.886;151.198;2023-04-24T11:00:48;19.10;99.90
25991;DHT22;13779;-33.886;151.198;2023-04-24T11:03:30;19.10;99.90
25991;DHT22;13779;-33.886;151.198;2023-04-24T11:06:04;19.20;99.90
25991;DHT22;13779;-33.886;151.198;2023-04-24T11:08:46;19.10;99.90
25991;DHT22;13779;-33.886;151.198;2023-04-24T11:11:21;19.20;99.90
25991;DHT22;13779;-33.886;151.198;2023-04-24T11:14:01;19.10;99.90
25991;DHT22;13779;-33.886;151.198;2023-04-24T11:16:36;19.10;99.90
25991;DHT22;13779;-33.886;151.198;2023-04-24T11:19:09;19.10;99.90
25991;DHT22;13779;-33.886;151.198;2023-04-24T11:21:48;19.10;99.90
25991;DHT22;13779;-33.886;151.198;2023-04-24T11:29:51;19.10;99.90
25991;DHT22;13779;-33.886;151.198;2023-04-24T11:32:37;19.00;99.90
25991;DHT22;13779;-33.886;151.198;2023-04-24T11:35:20;19.00;99.90
25991;DHT22;13779;-33.886;151.198;2023-04-24T11:37:54;19.00;99.90
25991;DHT22;13779;-33.886;151.198;2023-04-24T11:40:27;18.90;99.90
25991;DHT22;13779;-33.886;151.198;2023-04-24T11:43:00;18.90;99.90
25991;DHT22;13779;-33.886;151.198;2023-04-24T11:45:33;18.90;99.90
25991;DHT22;13779;-33.886;151.198;2023-04-24T11:48:04;18.80;99.90
25991;DHT22;13779;-33.886;151.198;2023-04-24T11:50:34;18.80;99.90
25991;DHT22;13779;-33.886;151.198;2023-04-24T11:53:04;18.80;99.90
25991;DHT22;13779;-33.886;151.198;2023-04-24T11:55:35;18.80;99.90
25991;DHT22;13779;-33.886;151.198;2023-04-24T11:58:06;18.80;99.90
25991;DHT22;13779;-33.886;151.198;2023-04-24T12:00:36;18.80;99.90
25991;DHT22;13779;-33.886;151.198;2023-04-24T12:03:11;18.80;99.90
25991;DHT22;13779;-33.886;151.198;2023-04-24T12:05:41;18.80;99.90
25991;DHT22;13779;-33.886;151.198;2023-04-24T12:08:31;18.80;99.90
25991;DHT22;13779;-33.886;151.198;2023-04-24T12:11:05;18.80;99.90
25991;DHT22;13779;-33.886;151.198;2023-04-24T12:13:36;18.80;99.90
25991;DHT22;13779;-33.886;151.198;2023-04-24T12:16:06;18.80;99.90
25991;DHT22;13779;-33.886;151.198;2023-04-24T12:18:42;18.80;99.90
25991;DHT22;13779;-33.886;151.198;2023-04-24T12:21:23;18.80;99.90
25991;DHT22;13779;-33.886;151.198;2023-04-24T12:23:55;18.70;99.90
25991;DHT22;13779;-33.886;151.198;2023-04-24T12:26:27;18.70;99.90
25991;DHT22;13779;-33.886;151.198;2023-04-24T12:29:02;18.70;99.90
25991;DHT22;13779;-33.886;151.198;2023-04-24T12:31:33;18.60;99.90
25991;DHT22;13779;-33.886;151.198;2023-04-24T12:34:03;18.60;99.90
25991;DHT22;13779;-33.886;151.198;2023-04-24T12:36:35;18.60;99.90
25991;DHT22;13779;-33.886;151.198;2023-04-24T12:39:15;18.60;99.90
25991;DHT22;13779;-33.886;151.198;2023-04-24T12:41:59;18.60;99.90
25991;DHT22;13779;-33.886;151.198;2023-04-24T12:44:37;18.60;99.90
25991;DHT22;13779;-33.886;151.198;2023-04-24T12:47:07;18.60;99.90
25991;DHT22;13779;-33.886;151.198;2023-04-24T12:49:39;18.50;99.90
25991;DHT22;13779;-33.886;151.198;2023-04-24T12:52:09;18.50;99.90
25991;DHT22;13779;-33.886;151.198;2023-04-24T12:54:40;18.40;99.90
25991;DHT22;13779;-33.886;151.198;2023-04-24T12:57:10;18.50;99.90
25991;DHT22;13779;-33.886;151.198;2023-04-24T12:59:41;18.40;99.90
25991;DHT22;13779;-33.886;151.198;2023-04-24T13:02:12;18.40;99.90
25991;DHT22;13779;-33.886;151.198;2023-04-24T13:04:42;18.40;99.90
25991;DHT22;13779;-33.886;151.198;2023-04-24T13:07:12;18.30;99.90
25991;DHT22;13779;-33.886;151.198;2023-04-24T13:09:44;18.30;99.90
25991;DHT22;13779;-33.886;151.198;2023-04-24T13:12:15;18.20;99.90
25991;DHT22;13779;-33.886;151.198;2023-04-24T13:14:46;18.30;99.90
25991;DHT22;13779;-33.886;151.198;2023-04-24T13:17:17;18.30;99.90
25991;DHT22;13779;-33.886;151.198;2023-04-24T13:19:49;18.30;99.90
25991;DHT22;13779;-33.886;151.198;2023-04-24T13:22:19;18.20;99.90
25991;DHT22;13779;-33.886;151.198;2023-04-24T13:24:50;18.20;99.90
25991;DHT22;13779;-33.886;151.198;2023-04-24T13:27:21;18.30;99.90
25991;DHT22;13779;-33.886;151.198;2023-04-24T13:29:51;18.30;99.90
25991;DHT22;13779;-33.886;151.198;2023-04-24T13:32:22;18.20;99.90
25991;DHT22;13779;-33.886;151.198;2023-04-24T13:34:52;18.20;99.90
25991;DHT22;13779;-33.886;151.198;2023-04-24T13:37:23;18.20;99.90
25991;DHT22;13779;-33.886;151.198;2023-04-24T13:39:53;18.20;99.90
25991;DHT22;13779;-33.886;151.198;2023-04-24T13:42:24;18.20;99.90
25991;DHT22;13779;-33.886;151.198;2023-04-24T13:44:54;18.20;99.90
25991;DHT22;13779;-33.886;151.198;2023-04-24T13:47:25;18.20;99.90
25991;DHT22;13779;-33.886;151.198;2023-04-24T13:49:56;18.10;99.90
25991;DHT22;13779;-33.886;151.198;2023-04-24T13:52:26;18.20;99.90
25991;DHT22;13779;-33.886;151.198;2023-04-24T13:54:57;18.10;99.90
25991;DHT22;13779;-33.886;151.198;2023-04-24T13:57:27;18.20;99.90
25991;DHT22;13779;-33.886;151.198;2023-04-24T13:59:58;18.10;99.90
25991;DHT22;13779;-33.886;151.198;2023-04-24T14:02:33;18.10;99.90
25991;DHT22;13779;-33.886;151.198;2023-04-24T14:05:04;18.10;99.90
25991;DHT22;13779;-33.886;151.198;2023-04-24T14:07:36;18.00;99.90
25991;DHT22;13779;-33.886;151.198;2023-04-24T14:10:10;18.00;99.90
25991;DHT22;13779;-33.886;151.198;2023-04-24T14:12:40;17.90;99.90
25991;DHT22;13779;-33.886;151.198;2023-04-24T14:15:11;17.90;99.90
25991;DHT22;13779;-33.886;151.198;2023-04-24T14:17:45;18.00;99.90
25991;DHT22;13779;-33.886;151.198;2023-04-24T14:20:16;18.00;99.90
25991;DHT22;13779;-33.886;151.198;2023-04-24T14:22:46;18.00;99.90
25991;DHT22;13779;-33.886;151.198;2023-04-24T14:25:17;18.00;99.90
25991;DHT22;13779;-33.886;151.198;2023-04-24T14:27:48;18.00;99.90
25991;DHT22;13779;-33.886;151.198;2023-04-24T14:30:19;18.10;99.90
25991;DHT22;13779;-33.886;151.198;2023-04-24T14:32:50;18.00;99.90
25991;DHT22;13779;-33.886;151.198;2023-04-24T14:35:21;18.00;99.90
25991;DHT22;13779;-33.886;151.198;2023-04-24T14:37:51;18.00;99.90
25991;DHT22;13779;-33.886;151.198;2023-04-24T14:40:21;18.00;99.90
25991;DHT22;13779;-33.886;151.198;2023-04-24T14:43:12;18.00;99.90
25991;DHT22;13779;-33.886;151.198;2023-04-24T14:45:42;18.00;99.90
25991;DHT22;13779;-33.886;151.198;2023-04-24T14:48:12;18.00;99.90
25991;DHT22;13779;-33.886;151.198;2023-04-24T14:50:42;17.90;99.90
25991;DHT22;13779;-33.886;151.198;2023-04-24T14:53:12;17.90;99.90
25991;DHT22;13779;-33.886;151.198;2023-04-24T14:55:42;17.90;99.90
25991;DHT22;13779;-33.886;151.198;2023-04-24T14:58:12;17.80;99.90
25991;DHT22;13779;-33.886;151.198;2023-04-24T15:00:42;17.80;99.90
25991;DHT22;13779;-33.886;151.198;2023-04-24T15:03:12;17.80;99.90
25991;DHT22;13779;-33.886;151.198;2023-04-24T15:05:43;17.80;99.90
25991;DHT22;13779;-33.886;151.198;2023-04-24T15:08:13;17.80;99.90
25991;DHT22;13779;-33.886;151.198;2023-04-24T15:10:43;17.80;99.90
25991;DHT22;13779;-33.886;151.198;2023-04-24T15:13:14;17.80;99.90
25991;DHT22;13779;-33.886;151.198;2023-04-24T15:15:45;17.80;99.90
25991;DHT22;13779;-33.886;151.198;2023-04-24T15:18:16;17.80;99.90
25991;DHT22;13779;-33.886;151.198;2023-04-24T15:20:46;17.90;99.90
25991;DHT22;13779;-33.886;151.198;2023-04-24T15:23:16;17.80;99.90